createdAt,value
2019-02-12T00:00:56.347Z,0.00
2019-02-12T00:01:56.354Z,0.00
2019-02-12T00:02:56.323Z,0.00
2019-02-12T00:03:56.323Z,0.00
2019-02-12T00:04:56.300Z,0.00
2019-02-12T00:05:56.304Z,0.00
2019-02-12T00:06:56.315Z,0.00
2019-02-12T00:07:56.271Z,0.00
2019-02-12T00:08:56.274Z,0.00
2019-02-12T00:09:56.244Z,0.00
2019-02-12T00:10:56.245Z,0.00
2019-02-12T00:11:56.223Z,0.00
2019-02-12T00:12:56.250Z,0.00
2019-02-12T00:13:56.202Z,0.00
2019-02-12T00:14:56.212Z,0.00
2019-02-12T00:15:56.188Z,0.00
2019-02-12T00:16:56.177Z,0.00
2019-02-12T00:17:56.166Z,0.00
2019-02-12T00:18:56.168Z,0.00
2019-02-12T00:19:56.140Z,0.00
2019-02-12T00:20:56.144Z,0.00
2019-02-12T00:21:56.162Z,0.00
2019-02-12T00:22:56.124Z,0.00
2019-02-12T00:23:56.133Z,0.00
2019-02-12T00:24:56.090Z,0.00
2019-02-12T00:25:56.078Z,0.00
2019-02-12T00:26:56.087Z,0.00
2019-02-12T00:27:56.070Z,0.00
2019-02-12T00:28:56.050Z,0.00
2019-02-12T00:29:56.073Z,0.00
2019-02-12T00:30:56.021Z,0.00
2019-02-12T00:31:56.014Z,0.00
2019-02-12T00:32:56.016Z,0.00
2019-02-12T00:33:55.997Z,0.00
2019-02-12T00:34:55.993Z,0.00
2019-02-12T00:35:56.003Z,0.00
2019-02-12T00:36:55.957Z,0.00
2019-02-12T00:37:55.961Z,0.00
2019-02-12T00:38:55.952Z,0.00
2019-02-12T00:39:55.933Z,0.00
2019-02-12T00:40:55.946Z,0.00
2019-02-12T00:41:55.924Z,0.00
2019-02-12T00:42:55.895Z,0.00
2019-02-12T00:43:55.897Z,0.00
2019-02-12T00:44:55.880Z,0.00
2019-02-12T00:45:55.871Z,0.00
2019-02-12T00:46:55.882Z,0.00
2019-02-12T00:47:55.855Z,0.00
2019-02-12T00:48:55.830Z,0.00
2019-02-12T00:49:55.832Z,0.00
2019-02-12T00:50:55.818Z,0.00
2019-02-12T00:51:55.811Z,0.00
2019-02-12T00:52:55.822Z,0.00
2019-02-12T00:53:55.792Z,0.00
2019-02-12T00:54:55.768Z,0.00
2019-02-12T00:55:55.769Z,0.00
2019-02-12T00:56:55.754Z,0.00
2019-02-12T00:57:55.745Z,0.00
2019-02-12T00:58:55.755Z,0.00
2019-02-12T00:59:55.717Z,0.00
2019-02-12T01:00:55.707Z,0.00
2019-02-12T01:01:55.702Z,0.00
2019-02-12T01:02:55.687Z,0.00
2019-02-12T01:03:55.696Z,0.00
2019-02-12T01:04:55.662Z,0.00
2019-02-12T01:05:55.651Z,0.00
2019-02-12T01:06:55.649Z,0.00
2019-02-12T01:07:55.636Z,0.00
2019-02-12T01:08:55.625Z,0.00
2019-02-12T01:09:55.635Z,0.00
2019-02-12T01:10:55.629Z,0.00
2019-02-12T01:11:55.595Z,0.00
2019-02-12T01:12:55.591Z,0.00
2019-02-12T01:13:55.579Z,0.00
2019-02-12T01:14:55.565Z,0.00
2019-02-12T01:15:55.575Z,0.00
2019-02-12T01:16:55.556Z,0.00
2019-02-12T01:17:55.531Z,0.00
2019-02-12T01:18:55.523Z,0.00
2019-02-12T01:19:55.511Z,0.00
2019-02-12T01:20:55.527Z,0.00
2019-02-12T01:21:55.489Z,0.00
2019-02-12T01:22:55.471Z,0.00
2019-02-12T01:23:55.459Z,0.00
2019-02-12T01:24:55.467Z,0.00
2019-02-12T01:25:55.471Z,0.00
2019-02-12T01:26:55.456Z,0.00
2019-02-12T01:27:55.420Z,0.00
2019-02-12T01:28:55.409Z,0.00
2019-02-12T01:29:55.406Z,0.00
2019-02-12T01:30:55.426Z,0.00
2019-02-12T01:31:55.385Z,0.00
2019-02-12T01:32:55.423Z,0.00
2019-02-12T01:33:55.365Z,0.00
2019-02-12T01:34:55.344Z,0.00
2019-02-12T01:35:55.338Z,0.00
2019-02-12T01:36:55.353Z,0.00
2019-02-12T01:37:55.345Z,0.00
2019-02-12T01:38:55.353Z,0.00
2019-02-12T01:39:55.298Z,0.00
2019-02-12T01:40:55.290Z,0.00
2019-02-12T01:41:55.282Z,0.00
2019-02-12T01:42:55.281Z,0.00
2019-02-12T01:43:55.289Z,0.00
2019-02-12T01:44:55.246Z,0.00
2019-02-12T01:45:55.229Z,0.00
2019-02-12T01:46:55.226Z,0.00
2019-02-12T01:47:55.211Z,0.00
2019-02-12T01:48:55.197Z,0.00
2019-02-12T01:49:55.202Z,0.00
2019-02-12T01:50:55.195Z,0.00
2019-02-12T01:51:55.173Z,0.00
2019-02-12T01:52:55.154Z,0.00
2019-02-12T01:53:55.150Z,0.00
2019-02-12T01:54:55.154Z,0.00
2019-02-12T01:55:55.136Z,0.00
2019-02-12T01:56:55.118Z,0.00
2019-02-12T01:57:55.117Z,0.00
2019-02-12T01:58:55.113Z,0.00
2019-02-12T01:59:55.112Z,0.00
2019-02-12T02:00:55.071Z,0.00
2019-02-12T02:01:55.065Z,0.00
2019-02-12T02:02:55.057Z,0.00
2019-02-12T02:03:55.051Z,0.00
2019-02-12T02:04:55.193Z,0.00
2019-02-12T02:05:55.053Z,0.00
2019-02-12T02:06:55.014Z,0.00
2019-02-12T02:07:55.021Z,0.00
2019-02-12T02:08:54.988Z,0.00
2019-02-12T02:09:54.985Z,0.00
2019-02-12T02:10:54.975Z,0.00
2019-02-12T02:11:54.979Z,0.00
2019-02-12T02:12:54.950Z,0.00
2019-02-12T02:13:54.936Z,0.00
2019-02-12T02:14:54.920Z,0.00
2019-02-12T02:15:54.915Z,0.00
2019-02-12T02:16:54.912Z,0.00
2019-02-12T02:17:54.919Z,0.00
2019-02-12T02:18:54.884Z,0.00
2019-02-12T02:19:54.889Z,0.00
2019-02-12T02:20:54.865Z,0.00
2019-02-12T02:21:54.859Z,0.00
2019-02-12T02:22:54.864Z,0.00
2019-02-12T02:23:54.839Z,0.00
2019-02-12T02:24:54.822Z,0.00
2019-02-12T02:25:54.823Z,0.00
2019-02-12T02:26:54.803Z,0.00
2019-02-12T02:27:54.831Z,0.00
2019-02-12T02:28:54.813Z,0.00
2019-02-12T02:29:54.766Z,0.00
2019-02-12T02:30:54.771Z,0.00
2019-02-12T02:31:54.772Z,0.00
2019-02-12T02:32:54.742Z,0.00
2019-02-12T02:33:54.730Z,0.00
2019-02-12T02:34:54.775Z,0.00
2019-02-12T02:35:54.698Z,0.00
2019-02-12T02:36:54.701Z,0.00
2019-02-12T02:37:54.706Z,0.00
2019-02-12T02:38:54.707Z,0.00
2019-02-12T02:39:54.689Z,0.00
2019-02-12T02:40:54.647Z,0.00
2019-02-12T02:41:54.648Z,0.00
2019-02-12T02:42:54.629Z,0.00
2019-02-12T02:43:54.628Z,0.00
2019-02-12T02:44:54.643Z,0.00
2019-02-12T02:45:54.611Z,0.00
2019-02-12T02:46:54.618Z,0.00
2019-02-12T02:47:54.572Z,0.00
2019-02-12T02:48:54.571Z,0.00
2019-02-12T02:49:54.557Z,0.00
2019-02-12T02:50:54.581Z,0.00
2019-02-12T02:51:54.536Z,0.00
2019-02-12T02:52:54.528Z,0.00
2019-02-12T02:53:54.523Z,0.00
2019-02-12T02:54:54.518Z,0.00
2019-02-12T02:55:54.499Z,0.00
2019-02-12T02:56:54.486Z,0.00
2019-02-12T02:57:54.483Z,0.00
2019-02-12T02:58:54.459Z,0.00
2019-02-12T02:59:54.480Z,0.00
2019-02-12T03:00:54.447Z,0.00
2019-02-12T03:01:54.427Z,0.00
2019-02-12T03:02:54.416Z,0.00
2019-02-12T03:03:54.407Z,0.00
2019-02-12T03:04:54.394Z,0.00
2019-02-12T03:05:54.444Z,0.00
2019-02-12T03:06:54.381Z,0.00
2019-02-12T03:07:54.365Z,0.00
2019-02-12T03:08:54.353Z,0.00
2019-02-12T03:09:54.360Z,0.00
2019-02-12T03:10:54.369Z,0.00
2019-02-12T03:11:54.326Z,0.00
2019-02-12T03:12:54.337Z,0.00
2019-02-12T03:13:54.311Z,0.00
2019-02-12T03:14:54.293Z,0.00
2019-02-12T03:15:54.304Z,0.00
2019-02-12T03:16:54.265Z,0.00
2019-02-12T03:17:54.262Z,0.00
2019-02-12T03:18:54.260Z,0.00
2019-02-12T03:19:54.309Z,0.00
2019-02-12T03:20:54.239Z,0.00
2019-02-12T03:22:03.125Z,0.00
2019-02-12T03:22:55.206Z,0.00
2019-02-12T03:23:54.194Z,0.00
2019-02-12T03:24:54.207Z,0.00
2019-02-12T03:25:54.201Z,0.00
2019-02-12T03:26:54.163Z,0.00
2019-02-12T03:27:54.176Z,0.00
2019-02-12T03:28:54.150Z,0.00
2019-02-12T03:29:54.140Z,0.00
2019-02-12T03:30:54.141Z,0.00
2019-02-12T03:31:54.137Z,0.00
2019-02-12T03:32:54.110Z,0.00
2019-02-12T03:33:54.112Z,0.00
2019-02-12T03:34:54.085Z,0.00
2019-02-12T03:35:54.079Z,0.00
2019-02-12T03:36:54.096Z,0.00
2019-02-12T03:37:54.050Z,0.00
2019-02-12T03:38:54.035Z,0.00
2019-02-12T03:39:54.023Z,0.00
2019-02-12T03:40:54.012Z,0.00
2019-02-12T03:41:54.020Z,0.00
2019-02-12T03:42:54.027Z,0.00
2019-02-12T03:43:53.996Z,0.00
2019-02-12T03:44:53.986Z,0.00
2019-02-12T03:45:53.960Z,0.00
2019-02-12T03:46:54.026Z,0.00
2019-02-12T03:47:53.950Z,0.00
2019-02-12T03:48:53.965Z,0.00
2019-02-12T03:49:53.926Z,0.00
2019-02-12T03:50:53.928Z,0.00
2019-02-12T03:51:53.902Z,0.00
2019-02-12T03:52:53.896Z,0.00
2019-02-12T03:53:53.906Z,0.00
2019-02-12T03:54:53.884Z,0.00
2019-02-12T03:55:53.873Z,0.00
2019-02-12T03:56:53.922Z,0.00
2019-02-12T03:57:53.837Z,0.00
2019-02-12T03:58:53.834Z,0.00
2019-02-12T03:59:53.842Z,0.00
2019-02-12T04:00:53.799Z,0.00
2019-02-12T04:01:53.801Z,0.00
2019-02-12T04:02:53.797Z,0.00
2019-02-12T04:03:53.773Z,0.00
2019-02-12T04:04:53.771Z,0.00
2019-02-12T04:05:53.776Z,0.00
2019-02-12T04:06:53.745Z,0.00
2019-02-12T04:07:53.790Z,0.00
2019-02-12T04:08:53.740Z,0.00
2019-02-12T04:09:53.705Z,0.00
2019-02-12T04:10:53.705Z,0.00
2019-02-12T04:11:53.727Z,0.00
2019-02-12T04:12:53.682Z,0.00
2019-02-12T04:13:53.674Z,0.00
2019-02-12T04:14:53.653Z,0.00
2019-02-12T04:15:53.645Z,0.00
2019-02-12T04:16:53.645Z,0.00
2019-02-12T04:17:53.652Z,0.00
2019-02-12T04:18:53.612Z,0.00
2019-02-12T04:19:53.605Z,0.00
2019-02-12T04:20:53.592Z,0.00
2019-02-12T04:21:53.638Z,0.00
2019-02-12T04:22:53.585Z,0.00
2019-02-12T04:23:53.588Z,0.00
2019-02-12T04:24:53.546Z,0.00
2019-02-12T04:25:53.546Z,0.00
2019-02-12T04:26:53.535Z,0.00
2019-02-12T04:27:55.361Z,0.00
2019-02-12T04:28:53.522Z,0.00
2019-02-12T04:29:53.517Z,0.00
2019-02-12T04:30:53.491Z,0.00
2019-02-12T04:31:53.478Z,0.00
2019-02-12T04:32:53.478Z,0.00
2019-02-12T04:33:53.531Z,0.00
2019-02-12T04:34:53.451Z,0.00
2019-02-12T04:35:53.461Z,0.00
2019-02-12T04:36:53.421Z,0.00
2019-02-12T04:37:53.432Z,0.00
2019-02-12T04:38:53.405Z,0.00
2019-02-12T04:39:53.449Z,4.00
2019-02-12T04:40:53.377Z,4.00
2019-02-12T04:41:53.385Z,4.00
2019-02-12T04:42:53.365Z,4.00
2019-02-12T04:43:53.354Z,4.00
2019-02-12T04:44:54.319Z,4.00
2019-02-12T04:45:53.351Z,4.00
2019-02-12T04:46:53.320Z,4.00
2019-02-12T04:47:53.308Z,4.00
2019-02-12T04:48:53.320Z,4.00
2019-02-12T04:49:53.280Z,4.00
2019-02-12T04:50:53.307Z,4.00
2019-02-12T04:51:53.273Z,0.00
2019-02-12T04:52:53.332Z,0.00
2019-02-12T04:53:53.263Z,0.00
2019-02-12T04:54:53.254Z,0.00
2019-02-12T04:55:53.244Z,0.00
2019-02-12T04:56:53.285Z,0.00
2019-02-12T04:57:53.208Z,0.00
2019-02-12T04:58:53.202Z,0.00
2019-02-12T04:59:53.181Z,0.00
2019-02-12T05:00:53.172Z,4.00
2019-02-12T05:01:53.154Z,4.00
2019-02-12T05:02:53.175Z,4.00
2019-02-12T05:03:53.150Z,4.00
2019-02-12T05:04:53.137Z,4.00
2019-02-12T05:05:53.137Z,0.00
2019-02-12T05:06:53.136Z,0.00
2019-02-12T05:07:53.154Z,0.00
2019-02-12T05:08:53.084Z,0.00
2019-02-12T05:09:53.075Z,0.00
2019-02-12T05:10:53.061Z,0.00
2019-02-12T05:11:53.049Z,0.00
2019-02-12T05:12:53.087Z,0.00
2019-02-12T05:13:53.031Z,0.00
2019-02-12T05:14:53.021Z,0.00
2019-02-12T05:15:53.003Z,4.00
2019-02-12T05:16:52.997Z,0.00
2019-02-12T05:17:53.008Z,0.00
2019-02-12T05:18:53.010Z,0.00
2019-02-12T05:19:52.969Z,0.00
2019-02-12T05:20:52.959Z,0.00
2019-02-12T05:21:52.962Z,0.00
2019-02-12T05:22:52.967Z,0.00
2019-02-12T05:23:52.932Z,0.00
2019-02-12T05:24:52.917Z,0.00
2019-02-12T05:25:52.897Z,0.00
2019-02-12T05:26:52.902Z,0.00
2019-02-12T05:27:52.909Z,0.00
2019-02-12T05:28:52.878Z,0.00
2019-02-12T05:29:52.854Z,0.00
2019-02-12T05:30:52.851Z,0.00
2019-02-12T05:31:52.842Z,0.00
2019-02-12T05:32:52.853Z,0.00
2019-02-12T05:33:52.817Z,0.00
2019-02-12T05:34:52.830Z,0.00
2019-02-12T05:35:52.841Z,0.00
2019-02-12T05:36:52.784Z,0.00
2019-02-12T05:37:52.833Z,0.00
2019-02-12T05:38:52.777Z,0.00
2019-02-12T05:39:52.751Z,0.00
2019-02-12T05:40:52.735Z,0.00
2019-02-12T05:41:52.722Z,0.00
2019-02-12T05:42:52.722Z,0.00
2019-02-12T05:43:52.728Z,0.00
2019-02-12T05:44:52.707Z,0.00
2019-02-12T05:45:52.722Z,0.00
2019-02-12T05:46:52.685Z,0.00
2019-02-12T05:47:52.694Z,0.00
2019-02-12T05:48:52.649Z,0.00
2019-02-12T05:49:52.703Z,0.00
2019-02-12T05:50:52.637Z,0.00
2019-02-12T05:51:52.627Z,0.00
2019-02-12T05:52:54.785Z,0.00
2019-02-12T05:53:52.617Z,0.00
2019-02-12T05:54:52.594Z,0.00
2019-02-12T05:55:52.589Z,0.00
2019-02-12T05:56:52.568Z,0.00
2019-02-12T05:57:52.569Z,0.00
2019-02-12T05:58:52.592Z,0.00
2019-02-12T05:59:52.541Z,0.00
2019-02-12T06:00:52.528Z,0.00
2019-02-12T06:01:52.521Z,0.00
2019-02-12T06:02:52.508Z,0.00
2019-02-12T06:03:52.519Z,0.00
2019-02-12T06:04:52.493Z,0.00
2019-02-12T06:05:52.485Z,0.00
2019-02-12T06:06:52.455Z,0.00
2019-02-12T06:07:52.465Z,0.00
2019-02-12T06:08:52.445Z,0.00
2019-02-12T06:09:52.463Z,0.00
2019-02-12T06:10:52.420Z,0.00
2019-02-12T06:11:52.412Z,0.00
2019-02-12T06:12:52.402Z,0.00
2019-02-12T06:13:52.387Z,0.00
2019-02-12T06:14:52.383Z,0.00
2019-02-12T06:15:52.392Z,0.00
2019-02-12T06:16:52.376Z,0.00
2019-02-12T06:17:52.353Z,0.00
2019-02-12T06:18:52.340Z,4.00
2019-02-12T06:19:52.342Z,4.00
2019-02-12T06:20:52.314Z,0.00
2019-02-12T06:21:52.332Z,4.00
2019-02-12T06:22:52.326Z,4.00
2019-02-12T06:23:52.275Z,4.00
2019-02-12T06:24:52.275Z,4.00
2019-02-12T06:25:52.275Z,4.00
2019-02-12T06:26:52.259Z,8.00
2019-02-12T06:27:52.289Z,8.00
2019-02-12T06:28:52.251Z,8.00
2019-02-12T06:29:52.223Z,8.00
2019-02-12T06:30:52.225Z,12.00
2019-02-12T06:31:52.191Z,16.00
2019-02-12T06:32:52.194Z,16.00
2019-02-12T06:33:52.190Z,16.00
2019-02-12T06:34:52.163Z,20.00
2019-02-12T06:35:52.161Z,24.00
2019-02-12T06:36:52.156Z,28.00
2019-02-12T06:37:52.134Z,32.00
2019-02-12T06:38:52.163Z,40.00
2019-02-12T06:39:52.110Z,44.00
2019-02-12T06:40:52.103Z,52.00
2019-02-12T06:41:52.096Z,52.00
2019-02-12T06:42:52.087Z,56.00
2019-02-12T06:43:52.137Z,60.00
2019-02-12T06:44:52.058Z,72.00
2019-02-12T06:45:52.065Z,80.00
2019-02-12T06:46:52.053Z,84.00
2019-02-12T06:47:52.029Z,84.00
2019-02-12T06:48:52.018Z,84.00
2019-02-12T06:49:52.049Z,88.00
2019-02-12T06:50:52.005Z,92.00
2019-02-12T06:51:51.990Z,92.00
2019-02-12T06:52:51.969Z,84.00
2019-02-12T06:53:51.991Z,80.00
2019-02-12T06:54:51.968Z,80.00
2019-02-12T06:55:51.977Z,104.00
2019-02-12T06:56:51.942Z,132.00
2019-02-12T06:57:51.917Z,200.00
2019-02-12T06:58:51.920Z,224.00
2019-02-12T06:59:51.922Z,208.00
2019-02-12T07:00:51.927Z,172.00
2019-02-12T07:01:51.894Z,188.00
2019-02-12T07:02:51.885Z,212.00
2019-02-12T07:03:51.902Z,228.00
2019-02-12T07:04:51.852Z,220.00
2019-02-12T07:05:51.847Z,208.00
2019-02-12T07:06:51.874Z,208.00
2019-02-12T07:07:51.820Z,256.00
2019-02-12T07:08:51.811Z,276.00
2019-02-12T07:09:51.801Z,264.00
2019-02-12T07:10:51.790Z,216.00
2019-02-12T07:11:51.796Z,208.00
2019-02-12T07:12:51.795Z,216.00
2019-02-12T07:13:51.750Z,240.00
2019-02-12T07:14:51.758Z,148.00
2019-02-12T07:15:51.733Z,140.00
2019-02-12T07:16:51.722Z,176.00
2019-02-12T07:17:51.718Z,244.00
2019-02-12T07:18:51.727Z,228.00
2019-02-12T07:19:51.697Z,224.00
2019-02-12T07:20:51.686Z,244.00
2019-02-12T07:21:51.664Z,272.00
2019-02-12T07:22:51.665Z,484.00
2019-02-12T07:23:51.666Z,700.00
2019-02-12T07:24:51.681Z,788.00
2019-02-12T07:25:51.639Z,816.00
2019-02-12T07:26:51.622Z,852.00
2019-02-12T07:27:51.602Z,868.00
2019-02-12T07:28:51.641Z,848.00
2019-02-12T07:29:51.609Z,860.00
2019-02-12T07:30:51.614Z,868.00
2019-02-12T07:31:51.566Z,856.00
2019-02-12T07:32:51.578Z,856.00
2019-02-12T07:33:51.561Z,904.00
2019-02-12T07:34:51.548Z,968.00
2019-02-12T07:35:51.550Z,992.00
2019-02-12T07:36:51.562Z,776.00
2019-02-12T07:37:51.504Z,536.00
2019-02-12T07:38:51.485Z,536.00
2019-02-12T07:39:51.480Z,644.00
2019-02-12T07:40:51.470Z,900.00
2019-02-12T07:41:51.486Z,976.00
2019-02-12T07:42:51.478Z,984.00
2019-02-12T07:43:51.458Z,1028.00
2019-02-12T07:44:51.423Z,1076.00
2019-02-12T07:45:51.427Z,976.00
2019-02-12T07:46:51.430Z,908.00
2019-02-12T07:47:51.417Z,912.00
2019-02-12T07:48:51.382Z,944.00
2019-02-12T07:49:51.384Z,948.00
2019-02-12T07:50:51.397Z,960.00
2019-02-12T07:51:51.360Z,1016.00
2019-02-12T07:52:51.367Z,1028.00
2019-02-12T07:53:51.362Z,1044.00
2019-02-12T07:54:51.322Z,1064.00
2019-02-12T07:55:51.559Z,1064.00
2019-02-12T07:56:51.300Z,1076.00
2019-02-12T07:57:51.302Z,1112.00
2019-02-12T07:58:51.338Z,1132.00
2019-02-12T07:59:51.291Z,1140.00
2019-02-12T08:00:51.260Z,1140.00
2019-02-12T08:01:51.239Z,1096.00
2019-02-12T08:02:51.233Z,1100.00
2019-02-12T08:03:51.232Z,1100.00
2019-02-12T08:04:51.244Z,1104.00
2019-02-12T08:05:51.215Z,1112.00
2019-02-12T08:06:51.188Z,1112.00
2019-02-12T08:07:51.180Z,1116.00
2019-02-12T08:08:51.175Z,1128.00
2019-02-12T08:09:51.164Z,1148.00
2019-02-12T08:10:51.177Z,1172.00
2019-02-12T08:11:51.138Z,1192.00
2019-02-12T08:12:51.133Z,1184.00
2019-02-12T08:13:51.109Z,1168.00
2019-02-12T08:14:51.111Z,1144.00
2019-02-12T08:15:51.103Z,1168.00
2019-02-12T08:16:51.103Z,1196.00
2019-02-12T08:17:51.075Z,1224.00
2019-02-12T08:18:51.063Z,1244.00
2019-02-12T08:19:51.065Z,1256.00
2019-02-12T08:20:51.041Z,1260.00
2019-02-12T08:21:51.045Z,1276.00
2019-02-12T08:22:51.045Z,1284.00
2019-02-12T08:23:51.019Z,1304.00
2019-02-12T08:24:51.019Z,1296.00
2019-02-12T08:25:50.989Z,1300.00
2019-02-12T08:26:50.976Z,1284.00
2019-02-12T08:27:50.976Z,1296.00
2019-02-12T08:28:52.154Z,1300.00
2019-02-12T08:29:50.940Z,1328.00
2019-02-12T08:30:50.941Z,1340.00
2019-02-12T08:31:50.931Z,1336.00
2019-02-12T08:32:50.920Z,1356.00
2019-02-12T08:33:50.915Z,1368.00
2019-02-12T08:34:50.927Z,1380.00
2019-02-12T08:35:57.092Z,1368.00
2019-02-12T08:36:51.868Z,1364.00
2019-02-12T08:37:50.850Z,1364.00
2019-02-12T08:38:50.877Z,1380.00
2019-02-12T08:39:50.854Z,1376.00
2019-02-12T08:40:50.873Z,1392.00
2019-02-12T08:41:50.822Z,1400.00
2019-02-12T08:42:50.804Z,1408.00
2019-02-12T08:43:50.792Z,1420.00
2019-02-12T08:44:50.787Z,1424.00
2019-02-12T08:45:50.764Z,1412.00
2019-02-12T08:46:50.785Z,1388.00
2019-02-12T08:47:50.768Z,1388.00
2019-02-12T08:48:50.772Z,1376.00
2019-02-12T08:49:50.735Z,1404.00
2019-02-12T08:50:50.718Z,1400.00
2019-02-12T08:51:50.779Z,1416.00
2019-02-12T08:52:50.696Z,1472.00
2019-02-12T08:53:50.903Z,1552.00
2019-02-12T08:54:50.733Z,1548.00
2019-02-12T08:55:50.673Z,1600.00
2019-02-12T08:56:50.649Z,1632.00
2019-02-12T08:57:50.684Z,1608.00
2019-02-12T08:58:50.634Z,1600.00
2019-02-12T08:59:50.654Z,1624.00
2019-02-12T09:00:50.608Z,1516.00
2019-02-12T09:01:50.651Z,1432.00
2019-02-12T09:02:50.594Z,1408.00
2019-02-12T09:03:50.623Z,1388.00
2019-02-12T09:04:50.570Z,1384.00
2019-02-12T09:05:50.560Z,1392.00
2019-02-12T09:06:50.542Z,1412.00
2019-02-12T09:07:50.541Z,1440.00
2019-02-12T09:08:50.549Z,1468.00
2019-02-12T09:09:50.567Z,1484.00
2019-02-12T09:10:50.519Z,1492.00
2019-02-12T09:11:50.518Z,1492.00
2019-02-12T09:12:50.493Z,1492.00
2019-02-12T09:13:50.488Z,1492.00
2019-02-12T09:14:50.466Z,1496.00
2019-02-12T09:15:50.495Z,1512.00
2019-02-12T09:16:50.453Z,1512.00
2019-02-12T09:17:50.434Z,1512.00
2019-02-12T09:18:50.420Z,1516.00
2019-02-12T09:19:50.421Z,1524.00
2019-02-12T09:20:50.404Z,1588.00
2019-02-12T09:21:50.444Z,1904.00
2019-02-12T09:22:50.393Z,2428.00
2019-02-12T09:23:59.543Z,2648.00
2019-02-12T09:24:51.359Z,2428.00
2019-02-12T09:25:50.347Z,2532.00
2019-02-12T09:26:50.362Z,2252.00
2019-02-12T09:27:50.317Z,1884.00
2019-02-12T09:28:50.330Z,1960.00
2019-02-12T09:29:50.299Z,2496.00
2019-02-12T09:30:50.292Z,2484.00
2019-02-12T09:31:50.287Z,2476.00
2019-02-12T09:32:50.319Z,2556.00
2019-02-12T09:33:50.266Z,2412.00
2019-02-12T09:34:50.263Z,2308.00
2019-02-12T09:35:50.254Z,1876.00
2019-02-12T09:36:50.229Z,1892.00
2019-02-12T09:37:50.220Z,2296.00
2019-02-12T09:38:50.237Z,3436.00
2019-02-12T09:39:50.197Z,4436.00
2019-02-12T09:40:50.207Z,3972.00
2019-02-12T09:41:50.176Z,3380.00
2019-02-12T09:42:50.182Z,2876.00
2019-02-12T09:43:50.172Z,2476.00
2019-02-12T09:44:50.170Z,2652.00
2019-02-12T09:45:50.140Z,2548.00
2019-02-12T09:46:50.222Z,2208.00
2019-02-12T09:47:50.115Z,2104.00
2019-02-12T09:48:50.111Z,2176.00
2019-02-12T09:49:50.232Z,2068.00
2019-02-12T09:50:50.078Z,2368.00
2019-02-12T09:51:50.074Z,2612.00
2019-02-12T09:52:50.065Z,2556.00
2019-02-12T09:53:50.055Z,3188.00
2019-02-12T09:54:50.061Z,3380.00
2019-02-12T09:55:50.071Z,2996.00
2019-02-12T09:56:50.011Z,2860.00
2019-02-12T09:57:50.015Z,2936.00
2019-02-12T09:58:49.992Z,3248.00
2019-02-12T09:59:49.994Z,3268.00
2019-02-12T10:00:49.984Z,2500.00
2019-02-12T10:01:49.988Z,2912.00
2019-02-12T10:02:49.953Z,2932.00
2019-02-12T10:03:49.943Z,1420.00
2019-02-12T10:04:49.931Z,1004.00
2019-02-12T10:05:49.928Z,916.00
2019-02-12T10:06:49.912Z,1312.00
2019-02-12T10:07:49.963Z,2096.00
2019-02-12T10:08:49.894Z,3072.00
2019-02-12T10:09:49.889Z,2968.00
2019-02-12T10:10:49.875Z,2084.00
2019-02-12T10:11:49.860Z,1648.00
2019-02-12T10:12:49.871Z,1320.00
2019-02-12T10:13:49.875Z,1128.00
2019-02-12T10:14:49.828Z,1340.00
2019-02-12T10:15:49.817Z,1292.00
2019-02-12T10:16:49.812Z,1332.00
2019-02-12T10:17:49.806Z,1320.00
2019-02-12T10:18:49.806Z,1340.00
2019-02-12T10:19:49.805Z,2184.00
2019-02-12T10:20:49.768Z,2604.00
2019-02-12T10:21:49.782Z,2068.00
2019-02-12T10:22:49.740Z,2356.00
2019-02-12T10:23:49.787Z,2712.00
2019-02-12T10:24:49.725Z,3784.00
2019-02-12T10:25:49.718Z,2060.00
2019-02-12T10:26:49.716Z,1804.00
2019-02-12T10:27:49.699Z,2344.00
2019-02-12T10:28:49.679Z,4296.00
2019-02-12T10:29:49.706Z,1892.00
2019-02-12T10:30:49.680Z,2088.00
2019-02-12T10:31:49.653Z,1804.00
2019-02-12T10:32:49.658Z,1876.00
2019-02-12T10:33:49.631Z,2768.00
2019-02-12T10:34:49.618Z,2188.00
2019-02-12T10:35:49.636Z,3096.00
2019-02-12T10:36:49.600Z,3164.00
2019-02-12T10:37:49.592Z,2460.00
2019-02-12T10:38:49.657Z,1600.00
2019-02-12T10:39:49.570Z,2184.00
2019-02-12T10:40:49.556Z,2576.00
2019-02-12T10:41:49.565Z,2368.00
2019-02-12T10:42:49.545Z,3420.00
2019-02-12T10:43:49.537Z,2104.00
2019-02-12T10:44:49.524Z,1800.00
2019-02-12T10:45:49.505Z,1640.00
2019-02-12T10:46:49.492Z,1856.00
2019-02-12T10:47:49.522Z,2088.00
2019-02-12T10:48:49.502Z,2240.00
2019-02-12T10:49:49.483Z,1828.00
2019-02-12T10:50:49.452Z,1936.00
2019-02-12T10:51:50.988Z,2228.00
2019-02-12T10:52:49.432Z,1916.00
2019-02-12T10:53:49.461Z,2080.00
2019-02-12T10:54:49.422Z,2764.00
2019-02-12T10:55:49.406Z,2788.00
2019-02-12T10:56:49.383Z,2572.00
2019-02-12T10:57:49.382Z,2296.00
2019-02-12T10:58:49.376Z,2472.00
2019-02-12T10:59:49.380Z,2028.00
2019-02-12T11:00:49.382Z,1884.00
2019-02-12T11:01:49.351Z,2040.00
2019-02-12T11:02:49.325Z,2024.00
2019-02-12T11:03:49.316Z,1608.00
2019-02-12T11:04:49.316Z,1920.00
2019-02-12T11:05:49.308Z,1376.00
2019-02-12T11:06:49.299Z,1612.00
2019-02-12T11:07:49.284Z,2620.00
2019-02-12T11:08:49.302Z,3224.00
2019-02-12T11:09:49.254Z,2288.00
2019-02-12T11:10:49.264Z,2728.00
2019-02-12T11:11:49.249Z,2708.00
2019-02-12T11:12:49.223Z,2584.00
2019-02-12T11:13:49.221Z,3260.00
2019-02-12T11:14:49.201Z,3528.00
2019-02-12T11:15:49.228Z,2504.00
2019-02-12T11:16:49.174Z,2280.00
2019-02-12T11:17:49.176Z,3688.00
2019-02-12T11:18:49.158Z,2900.00
2019-02-12T11:19:49.166Z,2240.00
2019-02-12T11:20:49.131Z,1928.00
2019-02-12T11:21:49.148Z,2156.00
2019-02-12T11:22:49.112Z,2604.00
2019-02-12T11:23:49.127Z,3508.00
2019-02-12T11:24:49.100Z,3432.00
2019-02-12T11:25:49.076Z,2516.00
2019-02-12T11:26:49.112Z,2028.00
2019-02-12T11:27:49.058Z,2044.00
2019-02-12T11:28:49.055Z,2228.00
2019-02-12T11:29:49.053Z,2196.00
2019-02-12T11:30:49.039Z,2784.00
2019-02-12T11:31:49.036Z,3400.00
2019-02-12T11:32:49.082Z,3000.00
2019-02-12T11:33:48.998Z,3100.00
2019-02-12T11:34:49.008Z,2880.00
2019-02-12T11:35:48.974Z,2380.00
2019-02-12T11:36:48.975Z,2632.00
2019-02-12T11:37:48.953Z,2620.00
2019-02-12T11:38:48.980Z,2564.00
2019-02-12T11:39:48.937Z,2560.00
2019-02-12T11:40:48.937Z,2632.00
2019-02-12T11:41:48.911Z,2928.00
2019-02-12T11:42:48.920Z,3360.00
2019-02-12T11:43:48.917Z,3744.00
2019-02-12T11:44:48.914Z,3692.00
2019-02-12T11:45:48.865Z,4004.00
2019-02-12T11:46:48.877Z,3556.00
2019-02-12T11:47:48.902Z,2576.00
2019-02-12T11:48:48.866Z,2808.00
2019-02-12T11:49:48.828Z,3500.00
2019-02-12T11:50:48.840Z,3952.00
2019-02-12T11:51:48.810Z,4324.00
2019-02-12T11:52:48.820Z,4968.00
2019-02-12T11:53:48.787Z,4852.00
2019-02-12T11:54:48.788Z,4884.00
2019-02-12T11:55:48.761Z,3720.00
2019-02-12T11:56:48.775Z,3092.00
2019-02-12T11:57:48.748Z,2556.00
2019-02-12T11:58:48.742Z,2552.00
2019-02-12T11:59:48.723Z,3360.00
2019-02-12T12:00:48.725Z,2828.00
2019-02-12T12:01:48.697Z,2864.00
2019-02-12T12:02:48.702Z,4152.00
2019-02-12T12:03:48.673Z,4332.00
2019-02-12T12:04:48.675Z,4608.00
2019-02-12T12:05:48.662Z,3552.00
2019-02-12T12:06:48.662Z,3044.00
2019-02-12T12:07:48.669Z,3148.00
2019-02-12T12:08:48.629Z,2612.00
2019-02-12T12:09:48.627Z,2572.00
2019-02-12T12:10:48.636Z,2104.00
2019-02-12T12:11:48.623Z,2692.00
2019-02-12T12:12:48.595Z,2472.00
2019-02-12T12:13:48.608Z,2028.00
2019-02-12T12:14:48.565Z,3356.00
2019-02-12T12:15:48.562Z,4276.00
2019-02-12T12:16:48.537Z,3964.00
2019-02-12T12:17:48.557Z,2864.00
2019-02-12T12:18:48.539Z,2664.00
2019-02-12T12:19:48.531Z,2932.00
2019-02-12T12:20:48.501Z,2524.00
2019-02-12T12:21:48.490Z,2744.00
2019-02-12T12:22:48.513Z,2292.00
2019-02-12T12:23:48.470Z,2136.00
2019-02-12T12:24:51.538Z,2160.00
2019-02-12T12:25:48.462Z,2560.00
2019-02-12T12:26:48.431Z,2568.00
2019-02-12T12:27:48.425Z,2356.00
2019-02-12T12:28:48.412Z,2260.00
2019-02-12T12:29:48.415Z,2272.00
2019-02-12T12:30:48.391Z,2444.00
2019-02-12T12:31:48.391Z,2488.00
2019-02-12T12:32:48.374Z,3068.00
2019-02-12T12:33:48.366Z,3440.00
2019-02-12T12:34:48.355Z,2544.00
2019-02-12T12:35:48.348Z,2152.00
2019-02-12T12:36:48.381Z,2744.00
2019-02-12T12:37:48.314Z,3996.00
2019-02-12T12:38:48.299Z,5236.00
2019-02-12T12:39:48.310Z,5420.00
2019-02-12T12:40:48.281Z,4752.00
2019-02-12T12:41:48.270Z,4916.00
2019-02-12T12:42:48.279Z,4684.00
2019-02-12T12:43:48.243Z,5628.00
2019-02-12T12:44:48.241Z,5016.00